Time;durP1;ratioP1;P1;durP2;ratioP2;P2;SDS_P1;SDS_P2;PMS_P1;PMS_P2;Temp;Humidity;BMP_temperature;BMP_pressure;BME280_temperature;BME280_humidity;BME280_pressure;Samples;Min_cycle;Max_cycle;Signal;HPM_P1;HPM_P2
2024/01/02 00:00:00;;;;;;;2.50;0.90;;;;;;;6.77;100.00;97472.75;5130843;28;20658;-73
2024/01/02 00:02:27;;;;;;;2.10;0.83;;;;;;;6.75;100.00;97468.69;5130736;28;20716;-73
2024/01/02 00:04:53;;;;;;;3.60;1.00;;;;;;;6.76;100.00;97465.84;5131084;28;20207;-73
2024/01/02 00:07:19;;;;;;;2.97;0.80;;;;;;;6.74;100.00;97464.44;5131096;28;20202;-73
2024/01/02 00:09:46;;;;;;;4.43;0.80;;;;;;;6.75;100.00;97461.56;5131038;28;20241;-73
2024/01/02 00:12:12;;;;;;;4.80;1.17;;;;;;;6.79;100.00;97454.06;5130663;28;20209;-73
2024/01/02 00:14:39;;;;;;;2.47;0.93;;;;;;;6.75;100.00;97455.50;5130955;28;20200;-73
2024/01/02 00:17:05;;;;;;;1.97;0.90;;;;;;;6.77;100.00;97445.50;5130502;28;20211;-73
2024/01/02 00:19:31;;;;;;;1.73;0.90;;;;;;;6.74;100.00;97443.31;5130750;28;20253;-73
2024/01/02 00:21:58;;;;;;;4.17;1.00;;;;;;;6.68;100.00;97434.38;5130515;28;20222;-73
2024/01/02 00:24:24;;;;;;;3.10;0.87;;;;;;;6.72;100.00;97440.88;5130950;28;20202;-73
2024/01/02 00:26:50;;;;;;;2.93;0.93;;;;;;;6.84;100.00;97430.47;5130889;28;20206;-73
2024/01/02 00:29:17;;;;;;;3.20;1.07;;;;;;;6.75;100.00;97434.34;5130770;28;20219;-73
2024/01/02 00:31:44;;;;;;;2.73;1.00;;;;;;;6.77;100.00;97421.75;5130746;28;20198;-73
2024/01/02 00:34:11;;;;;;;3.87;1.10;;;;;;;6.75;100.00;97414.00;5120190;28;20238;-73
2024/01/02 00:36:37;;;;;;;2.20;0.80;;;;;;;6.68;100.00;97413.25;5116999;28;20272;-73
2024/01/02 00:39:03;;;;;;;2.33;0.87;;;;;;;6.73;100.00;97407.31;5116671;28;20681;-73
2024/01/02 00:41:30;;;;;;;5.27;0.87;;;;;;;6.71;100.00;97409.38;5116802;28;20203;-73
2024/01/02 00:43:56;;;;;;;3.77;1.07;;;;;;;6.72;100.00;97409.19;5117728;28;20276;-73
2024/01/02 00:46:23;;;;;;;1.90;0.90;;;;;;;6.73;100.00;97400.22;5116725;28;20203;-73
2024/01/02 00:48:49;;;;;;;2.03;0.80;;;;;;;6.75;100.00;97394.72;5116492;28;20297;-74
2024/01/02 00:51:15;;;;;;;2.20;1.00;;;;;;;6.85;100.00;97379.22;5116627;28;20205;-73
2024/01/02 00:53:42;;;;;;;3.00;0.80;;;;;;;6.92;100.00;97382.66;5116515;28;20207;-73
2024/01/02 00:56:08;;;;;;;2.40;0.70;;;;;;;6.96;100.00;97381.19;5116213;28;20688;-73
2024/01/02 00:58:34;;;;;;;2.73;0.90;;;;;;;6.95;100.00;97376.94;5116422;28;20207;-73
2024/01/02 01:01:01;;;;;;;3.03;1.00;;;;;;;6.86;100.00;97375.56;5116069;28;20237;-73
2024/01/02 01:03:27;;;;;;;1.93;0.70;;;;;;;6.88;100.00;97378.81;5116389;28;20223;-74
2024/01/02 01:05:53;;;;;;;1.63;0.70;;;;;;;6.86;100.00;97371.09;5116298;28;20206;-73
2024/01/02 01:08:20;;;;;;;3.37;0.80;;;;;;;6.82;100.00;97369.06;5116227;28;20200;-73
2024/01/02 01:10:46;;;;;;;2.23;0.63;;;;;;;6.93;100.00;97363.13;5116152;28;20601;-73
2024/01/02 01:13:13;;;;;;;2.20;0.90;;;;;;;6.94;100.00;97354.19;5116170;28;20221;-73
2024/01/02 01:15:39;;;;;;;1.77;0.77;;;;;;;7.02;100.00;97356.56;5116115;28;20295;-73
2024/01/02 01:18:06;;;;;;;1.90;0.60;;;;;;;6.98;100.00;97358.84;5116112;28;20207;-73
2024/01/02 01:20:32;;;;;;;1.87;0.60;;;;;;;6.92;100.00;97356.25;5115661;28;20310;-73
2024/01/02 01:22:58;;;;;;;3.47;0.70;;;;;;;6.84;100.00;97349.34;5115593;28;20229;-73
2024/01/02 01:25:25;;;;;;;2.90;0.93;;;;;;;6.88;100.00;97339.19;5115890;28;20228;-73
2024/01/02 01:27:51;;;;;;;1.63;0.70;;;;;;;6.81;100.00;97338.41;5115916;28;20203;-73
2024/01/02 01:30:17;;;;;;;3.80;0.87;;;;;;;6.92;100.00;97327.19;5115778;28;20219;-73
2024/01/02 01:32:44;;;;;;;2.27;0.70;;;;;;;6.91;100.00;97325.53;5115712;28;20540;-73
2024/01/02 01:35:11;;;;;;;1.13;0.50;;;;;;;6.89;100.00;97322.31;5115741;28;20203;-73
2024/01/02 01:37:37;;;;;;;2.73;0.80;;;;;;;6.85;100.00;97326.41;5115776;28;20316;-74
2024/01/02 01:40:04;;;;;;;0.97;0.60;;;;;;;6.82;100.00;97321.53;5115545;28;20239;-73
2024/01/02 01:42:30;;;;;;;1.13;0.60;;;;;;;6.78;100.00;97315.06;5115545;28;20254;-73
2024/01/02 01:44:56;;;;;;;1.97;0.67;;;;;;;6.85;100.00;97310.53;5114583;28;20210;-73
2024/01/02 01:47:23;;;;;;;1.53;0.60;;;;;;;6.76;100.00;97306.53;5115544;28;20210;-73
2024/01/02 01:49:49;;;;;;;2.30;0.77;;;;;;;6.76;100.00;97307.34;5115130;28;20223;-73
2024/01/02 01:52:16;;;;;;;1.37;0.60;;;;;;;6.78;100.00;97309.78;5115393;28;20207;-74
2024/01/02 01:54:43;;;;;;;2.13;0.80;;;;;;;6.94;100.00;97301.34;5115379;28;20199;-74
2024/01/02 01:57:10;;;;;;;1.57;0.70;;;;;;;6.89;100.00;97299.34;5115391;28;20199;-74
2024/01/02 01:59:38;;;;;;;2.40;0.60;;;;;;;6.92;100.00;97285.69;5114891;28;20276;-74
2024/01/02 02:02:05;;;;;;;1.73;0.73;;;;;;;6.85;100.00;97286.78;5115241;28;20228;-74
2024/01/02 02:04:35;;;;;;;2.63;0.80;;;;;;;6.88;100.00;97281.06;5114856;27;20666;-73
2024/01/02 02:07:02;;;;;;;1.23;0.60;;;;;;;6.91;100.00;97281.44;5115276;28;20203;-74
2024/01/02 02:09:28;;;;;;;0.90;0.63;;;;;;;6.87;100.00;97274.16;5115165;28;20229;-74
2024/01/02 02:11:55;;;;;;;1.73;0.70;;;;;;;6.90;100.00;97268.44;5115132;28;20211;-74
2024/01/02 02:14:22;;;;;;;3.07;0.70;;;;;;;6.95;100.00;97276.53;5115317;28;20211;-74
2024/01/02 02:16:50;;;;;;;1.50;0.60;;;;;;;6.91;100.00;97276.16;5114622;28;20214;-74
2024/01/02 02:19:16;;;;;;;1.33;0.60;;;;;;;6.93;100.00;97273.31;5114939;28;20227;-74
2024/01/02 02:21:44;;;;;;;0.97;0.60;;;;;;;6.93;100.00;97268.03;5114679;27;20206;-73
2024/01/02 02:24:10;;;;;;;2.40;0.97;;;;;;;7.02;100.00;97258.81;5114917;27;20210;-73
2024/01/02 02:26:37;;;;;;;3.43;0.83;;;;;;;6.94;100.00;97259.88;5114871;28;20206;-73
2024/01/02 02:29:03;;;;;;;0.60;0.60;;;;;;;6.89;100.00;97251.78;5114770;28;20199;-73
2024/01/02 02:31:30;;;;;;;1.63;0.53;;;;;;;6.90;100.00;97253.41;5114479;28;20238;-74
2024/01/02 02:33:57;;;;;;;2.50;0.63;;;;;;;6.88;100.00;97241.44;5114741;28;20206;-74
2024/01/02 02:36:23;;;;;;;1.10;0.60;;;;;;;6.85;100.00;97231.28;5115311;28;20569;-74
2024/01/02 02:38:49;;;;;;;0.77;0.53;;;;;;;6.87;100.00;97231.91;5114275;28;20747;-74
2024/01/02 02:41:16;;;;;;;0.70;0.60;;;;;;;6.90;100.00;97221.69;5114305;28;20670;-74
2024/01/02 02:43:42;;;;;;;1.00;0.50;;;;;;;6.94;100.00;97208.88;5114442;28;20321;-74
2024/01/02 02:46:09;;;;;;;3.00;0.97;;;;;;;6.92;100.00;97198.50;5114529;28;20199;-74
2024/01/02 02:48:35;;;;;;;1.87;0.70;;;;;;;6.91;100.00;97201.34;5114506;28;20199;-74
2024/01/02 02:51:01;;;;;;;0.87;0.50;;;;;;;6.86;100.00;97199.38;5114132;28;20233;-73
2024/01/02 02:53:28;;;;;;;1.27;0.93;;;;;;;6.91;100.00;97186.31;5114040;28;20206;-74
2024/01/02 02:55:54;;;;;;;1.67;0.70;;;;;;;6.86;100.00;97182.72;5113815;28;20203;-74
2024/01/02 02:58:20;;;;;;;1.67;0.40;;;;;;;6.85;100.00;97183.75;5114037;28;20542;-74
2024/01/02 03:00:47;;;;;;;2.00;0.70;;;;;;;6.85;100.00;97178.47;5114011;28;20223;-74
2024/01/02 03:03:14;;;;;;;2.83;0.70;;;;;;;6.78;100.00;97167.16;5113970;28;20690;-74
2024/01/02 03:05:40;;;;;;;0.63;0.40;;;;;;;6.86;100.00;97170.31;5114217;28;20208;-74
2024/01/02 03:08:07;;;;;;;2.50;0.67;;;;;;;6.76;100.00;97151.53;5114169;28;20200;-74
2024/01/02 03:10:33;;;;;;;0.40;0.40;;;;;;;6.80;100.00;97151.88;5114034;28;20320;-74
2024/01/02 03:13:00;;;;;;;2.37;0.60;;;;;;;6.83;100.00;97148.81;5114053;28;20203;-74
2024/01/02 03:15:26;;;;;;;1.70;0.50;;;;;;;6.70;100.00;97138.38;5114134;28;20199;-73
2024/01/02 03:17:53;;;;;;;0.60;0.60;;;;;;;6.77;100.00;97129.34;5113984;28;20199;-74
2024/01/02 03:20:19;;;;;;;0.70;0.47;;;;;;;6.76;100.00;97130.38;5113878;28;20229;-74
2024/01/02 03:22:45;;;;;;;1.00;0.60;;;;;;;6.66;100.00;97118.69;5113564;28;20317;-74
2024/01/02 03:25:11;;;;;;;1.87;0.50;;;;;;;6.64;100.00;97107.53;5113926;28;20207;-74
2024/01/02 03:27:38;;;;;;;0.83;0.40;;;;;;;6.66;100.00;97103.63;5113892;28;20203;-74
2024/01/02 03:30:06;;;;;;;1.00;0.50;;;;;;;6.58;100.00;97108.41;5113833;28;20227;-74
2024/01/02 03:32:32;;;;;;;1.03;0.40;;;;;;;6.57;100.00;97094.41;5113902;28;20204;-74
2024/01/02 03:34:58;;;;;;;1.23;0.60;;;;;;;6.57;100.00;97088.31;5113758;28;20207;-74
2024/01/02 03:37:25;;;;;;;0.53;0.47;;;;;;;6.55;100.00;97079.78;5113790;28;20210;-74
2024/01/02 03:39:51;;;;;;;1.40;0.60;;;;;;;6.52;100.00;97067.03;5113700;28;20583;-74
2024/01/02 03:42:18;;;;;;;0.77;0.40;;;;;;;6.57;100.00;97069.81;5113364;28;20207;-74
2024/01/02 03:44:44;;;;;;;0.80;0.47;;;;;;;6.48;100.00;97052.66;5113697;28;20225;-73
2024/01/02 03:47:10;;;;;;;0.87;0.40;;;;;;;6.50;100.00;97061.16;5113752;28;20207;-73
2024/01/02 03:49:37;;;;;;;0.63;0.50;;;;;;;6.49;100.00;97046.34;5113363;28;20706;-73
2024/01/02 03:52:03;;;;;;;1.30;0.53;;;;;;;6.53;100.00;97036.97;5113807;28;20575;-73
2024/01/02 03:54:30;;;;;;;0.57;0.30;;;;;;;6.45;100.00;97035.41;5113809;28;20606;-73
2024/01/02 03:56:56;;;;;;;0.33;0.33;;;;;;;6.46;100.00;97031.75;5113637;28;20243;-73
2024/01/02 03:59:22;;;;;;;1.00;0.40;;;;;;;6.40;100.00;97023.88;5113205;28;20234;-73
2024/01/02 04:01:49;;;;;;;0.90;0.60;;;;;;;6.37;100.00;97011.09;5113381;28;20203;-73
2024/01/02 04:04:15;;;;;;;0.80;0.50;;;;;;;6.39;100.00;97006.44;5113320;28;20588;-73
2024/01/02 04:06:41;;;;;;;1.17;0.40;;;;;;;6.36;100.00;96997.13;5112893;28;20207;-73
2024/01/02 04:09:10;;;;;;;0.40;0.40;;;;;;;6.34;100.00;96998.38;5115359;28;20229;-73
2024/01/02 04:11:36;;;;;;;1.10;0.37;;;;;;;6.36;100.00;96994.47;5117147;28;20215;-73
2024/01/02 04:14:02;;;;;;;0.40;0.40;;;;;;;6.34;100.00;96998.38;5117225;28;20206;-73
2024/01/02 04:16:29;;;;;;;0.90;0.40;;;;;;;6.43;100.00;96991.78;5117062;28;20206;-73
2024/01/02 04:18:55;;;;;;;0.83;0.30;;;;;;;6.46;100.00;96983.41;5116994;28;20203;-73
2024/01/02 04:21:21;;;;;;;0.43;0.40;;;;;;;6.37;100.00;96987.34;5117693;28;20222;-73
2024/01/02 04:23:48;;;;;;;0.40;0.30;;;;;;;6.32;100.00;96980.09;5117101;28;20208;-73
2024/01/02 04:26:14;;;;;;;0.87;0.30;;;;;;;6.33;100.00;96975.66;5116752;28;20647;-73
2024/01/02 04:28:41;;;;;;;1.77;0.30;;;;;;;6.30;100.00;96970.78;5116651;28;20568;-73
2024/01/02 04:31:08;;;;;;;0.57;0.20;;;;;;;6.28;100.00;96963.09;5117080;28;20223;-74
2024/01/02 04:33:35;;;;;;;1.23;0.40;;;;;;;6.28;100.00;96965.72;5117075;28;20199;-73
2024/01/02 04:36:01;;;;;;;0.87;0.30;;;;;;;6.24;100.00;96955.84;5116815;28;20210;-73
2024/01/02 04:38:28;;;;;;;0.50;0.30;;;;;;;6.24;100.00;96940.00;5116695;28;20203;-73
2024/01/02 04:40:54;;;;;;;0.30;0.20;;;;;;;6.26;100.00;96935.31;5116652;28;20225;-73
2024/01/02 04:43:24;;;;;;;0.83;0.40;;;;;;;6.22;100.00;96926.22;5116578;28;20223;-73
2024/01/02 04:45:51;;;;;;;1.13;0.30;;;;;;;6.20;100.00;96921.13;5116546;28;20215;-73
2024/01/02 04:48:18;;;;;;;1.17;0.43;;;;;;;6.17;100.00;96911.03;5116552;28;20199;-73
2024/01/02 04:50:45;;;;;;;0.30;0.30;;;;;;;6.19;100.00;96902.91;5116310;27;20233;-73
2024/01/02 04:53:12;;;;;;;0.67;0.50;;;;;;;6.16;100.00;96917.31;5116342;28;20203;-74
2024/01/02 04:55:38;;;;;;;0.43;0.40;;;;;;;6.08;100.00;96915.00;5115902;28;20692;-74
2024/01/02 04:58:04;;;;;;;0.40;0.30;;;;;;;6.06;100.00;96895.91;5115904;28;20658;-73
2024/01/02 05:00:31;;;;;;;0.73;0.40;;;;;;;6.13;100.00;96893.22;5116219;28;20255;-73
2024/01/02 05:02:58;;;;;;;0.53;0.40;;;;;;;6.10;100.00;96891.03;5115988;28;20223;-74
2024/01/02 05:05:24;;;;;;;0.47;0.30;;;;;;;6.10;100.00;96881.28;5116072;28;20203;-73
2024/01/02 05:07:51;;;;;;;1.10;0.40;;;;;;;6.09;100.00;96877.03;5115886;28;20205;-73
2024/01/02 05:10:17;;;;;;;0.40;0.40;;;;;;;6.10;100.00;96872.56;5115450;28;20584;-73
2024/01/02 05:12:45;;;;;;;0.40;0.40;;;;;;;6.08;100.00;96858.78;5116744;28;20199;-74
2024/01/02 05:15:11;;;;;;;1.67;0.57;;;;;;;6.03;100.00;96853.34;5115927;28;20238;-74
2024/01/02 05:17:37;;;;;;;0.83;0.37;;;;;;;6.13;100.00;96858.91;5115724;28;20637;-74
2024/01/02 05:20:04;;;;;;;1.13;0.50;;;;;;;6.09;100.00;96850.63;5115327;28;20713;-75
2024/01/02 05:22:32;;;;;;;0.87;0.60;;;;;;;6.11;100.00;96860.97;5115537;28;20260;-73
2024/01/02 05:24:58;;;;;;;1.23;0.50;;;;;;;6.08;100.00;96849.03;5115625;28;20199;-73
2024/01/02 05:27:25;;;;;;;0.87;0.50;;;;;;;6.09;100.00;96836.63;5115762;28;20207;-73
2024/01/02 05:29:52;;;;;;;1.30;0.40;;;;;;;6.03;100.00;96845.44;5115732;28;20232;-73
2024/01/02 05:32:18;;;;;;;1.00;0.47;;;;;;;6.09;100.00;96840.09;5115661;28;20203;-73
2024/01/02 05:34:45;;;;;;;0.80;0.50;;;;;;;6.05;100.00;96836.28;5115278;28;20203;-73
2024/01/02 05:37:11;;;;;;;0.40;0.40;;;;;;;6.06;100.00;96837.09;5115998;28;20203;-73
2024/01/02 05:39:37;;;;;;;0.80;0.40;;;;;;;6.10;100.00;96835.63;5115399;28;20226;-73
2024/01/02 05:42:04;;;;;;;1.40;0.50;;;;;;;6.09;100.00;96836.63;5115042;28;20669;-73
2024/01/02 05:44:30;;;;;;;1.27;0.50;;;;;;;6.14;100.00;96834.94;5115615;28;20307;-73
2024/01/02 05:46:57;;;;;;;0.87;0.40;;;;;;;6.18;100.00;96822.13;5114975;28;20207;-74
2024/01/02 05:49:23;;;;;;;1.00;0.50;;;;;;;6.19;100.00;96810.56;5114872;28;20219;-73
2024/01/02 05:51:49;;;;;;;0.90;0.47;;;;;;;6.14;100.00;96807.75;5115127;28;20213;-74
2024/01/02 05:54:16;;;;;;;0.70;0.50;;;;;;;6.24;100.00;96808.84;5114998;28;20206;-74
2024/01/02 05:56:42;;;;;;;0.87;0.57;;;;;;;6.20;100.00;96809.53;5115431;28;20213;-74
2024/01/02 05:59:08;;;;;;;0.67;0.40;;;;;;;6.26;100.00;96800.72;5115059;28;20227;-73
2024/01/02 06:01:35;;;;;;;0.47;0.30;;;;;;;6.25;100.00;96804.38;5115177;28;20229;-73
2024/01/02 06:04:01;;;;;;;0.30;0.30;;;;;;;6.26;100.00;96798.06;5115036;28;20265;-73
2024/01/02 06:06:28;;;;;;;0.93;0.40;;;;;;;6.26;100.00;96790.16;5114274;28;20733;-74
2024/01/02 06:08:54;;;;;;;0.47;0.40;;;;;;;6.26;100.00;96779.59;5114918;28;20225;-74
2024/01/02 06:11:21;;;;;;;0.73;0.40;;;;;;;6.22;100.00;96795.09;5114718;28;20565;-74
2024/01/02 06:13:47;;;;;;;1.20;0.50;;;;;;;6.29;100.00;96790.50;5114578;28;20666;-74
2024/01/02 06:16:13;;;;;;;1.47;0.60;;;;;;;6.33;100.00;96789.03;5114594;28;20211;-74
2024/01/02 06:18:40;;;;;;;0.47;0.40;;;;;;;6.31;100.00;96788.47;5114575;28;20234;-74
2024/01/02 06:21:07;;;;;;;2.30;0.80;;;;;;;6.33;100.00;96777.69;5114401;28;20246;-74
2024/01/02 06:23:33;;;;;;;0.50;0.30;;;;;;;6.31;100.00;96783.19;5114693;28;20219;-74
2024/01/02 06:26:00;;;;;;;0.73;0.50;;;;;;;6.37;100.00;96778.84;5114617;28;20207;-74
2024/01/02 06:28:27;;;;;;;1.50;0.50;;;;;;;6.35;100.00;96783.53;5114575;28;20199;-74
2024/01/02 06:30:53;;;;;;;0.50;0.40;;;;;;;6.40;100.00;96776.56;5114058;28;20225;-74
2024/01/02 06:33:20;;;;;;;0.73;0.30;;;;;;;6.35;100.00;96767.72;5114200;28;20195;-74
2024/01/02 06:35:46;;;;;;;0.80;0.60;;;;;;;6.45;100.00;96778.53;5114398;28;20667;-74
2024/01/02 06:38:13;;;;;;;0.20;0.20;;;;;;;6.48;100.00;96756.97;5114136;28;20203;-74
2024/01/02 06:40:39;;;;;;;0.53;0.30;;;;;;;6.42;100.00;96757.88;5114375;28;20577;-74
2024/01/02 06:43:06;;;;;;;0.57;0.57;;;;;;;6.47;100.00;96750.09;5113969;28;20215;-74
2024/01/02 06:45:35;;;;;;;0.50;0.50;;;;;;;6.45;100.00;96746.84;5114183;28;20205;-74
2024/01/02 06:48:01;;;;;;;0.33;0.33;;;;;;;6.47;100.00;96735.03;5114146;28;20207;-74
2024/01/02 06:50:28;;;;;;;0.47;0.47;;;;;;;6.49;100.00;96732.19;5113954;28;20227;-74
2024/01/02 06:52:54;;;;;;;0.40;0.40;;;;;;;6.54;100.00;96732.31;5114586;28;20199;-74
2024/01/02 06:55:21;;;;;;;0.77;0.50;;;;;;;6.54;100.00;96738.41;5114220;28;20209;-74
2024/01/02 06:57:47;;;;;;;0.63;0.40;;;;;;;6.59;100.00;96740.34;5114116;28;20207;-74
2024/01/02 07:00:14;;;;;;;0.30;0.30;;;;;;;6.68;100.00;96741.63;5113437;28;20234;-73
2024/01/02 07:02:40;;;;;;;0.40;0.40;;;;;;;6.69;100.00;96730.84;5114458;28;20612;-73
2024/01/02 07:05:07;;;;;;;1.50;0.40;;;;;;;6.67;100.00;96721.56;5113761;28;20295;-74
2024/01/02 07:07:33;;;;;;;0.30;0.30;;;;;;;6.64;100.00;96716.72;5113937;28;20303;-74
2024/01/02 07:10:00;;;;;;;0.77;0.40;;;;;;;6.73;100.00;96713.53;5113886;28;20226;-74
2024/01/02 07:12:26;;;;;;;1.70;0.53;;;;;;;6.71;100.00;96709.50;5113578;28;20206;-74
2024/01/02 07:14:53;;;;;;;1.07;0.40;;;;;;;6.69;100.00;96709.72;5113818;28;20205;-74
2024/01/02 07:17:21;;;;;;;0.43;0.40;;;;;;;6.74;100.00;96724.91;5113673;28;20215;-74
2024/01/02 07:19:47;;;;;;;0.33;0.30;;;;;;;6.81;100.00;96715.03;5113624;28;20262;-74
2024/01/02 07:22:14;;;;;;;1.13;0.50;;;;;;;6.79;100.00;96730.31;5113665;28;20225;-74
2024/01/02 07:24:40;;;;;;;1.43;0.50;;;;;;;6.83;100.00;96718.28;5113746;28;20226;-74
2024/01/02 07:27:06;;;;;;;0.50;0.50;;;;;;;6.90;100.00;96703.91;5113591;28;20227;-74
2024/01/02 07:29:33;;;;;;;1.07;0.70;;;;;;;6.93;100.00;96710.59;5113467;28;20223;-74
2024/01/02 07:31:59;;;;;;;0.40;0.40;;;;;;;6.95;100.00;96706.69;5113604;28;20206;-74
2024/01/02 07:34:25;;;;;;;0.97;0.40;;;;;;;7.03;100.00;96710.81;5114347;28;20578;-74
2024/01/02 07:36:52;;;;;;;0.30;0.30;;;;;;;7.10;100.00;96699.09;5113228;28;20199;-74
2024/01/02 07:39:18;;;;;;;0.60;0.30;;;;;;;7.16;100.00;96707.94;5113490;28;20223;-74
2024/01/02 07:41:45;;;;;;;0.40;0.40;;;;;;;7.14;100.00;96710.81;5113619;28;20260;-74
2024/01/02 07:44:11;;;;;;;0.43;0.30;;;;;;;7.20;100.00;96701.16;5116062;28;20219;-74
2024/01/02 07:46:37;;;;;;;0.40;0.40;;;;;;;7.24;100.00;96715.53;5117595;28;20215;-74
2024/01/02 07:49:04;;;;;;;0.30;0.30;;;;;;;7.21;100.00;96714.16;5117576;28;20209;-74
2024/01/02 07:51:30;;;;;;;1.80;0.40;;;;;;;7.26;100.00;96711.63;5117624;28;20203;-74
2024/01/02 07:53:57;;;;;;;0.30;0.30;;;;;;;7.35;100.00;96717.34;5117281;28;20215;-74
2024/01/02 07:56:26;;;;;;;1.40;0.37;;;;;;;7.51;100.00;96717.44;5117350;28;20203;-74
2024/01/02 07:58:52;;;;;;;0.43;0.40;;;;;;;7.60;100.00;96717.91;5117443;28;20246;-74
2024/01/02 08:01:18;;;;;;;0.20;0.20;;;;;;;7.58;100.00;96709.41;5117493;28;20203;-74
2024/01/02 08:03:45;;;;;;;0.67;0.30;;;;;;;7.68;100.00;96706.97;5117525;28;20584;-74
2024/01/02 08:06:11;;;;;;;1.80;0.30;;;;;;;7.67;100.00;96715.94;5117316;28;20214;-74
2024/01/02 08:08:38;;;;;;;0.30;0.20;;;;;;;7.67;100.00;96718.59;5116940;28;20290;-74
2024/01/02 08:11:05;;;;;;;0.37;0.37;;;;;;;7.69;100.00;96719.97;5117301;28;20223;-74
2024/01/02 08:13:31;;;;;;;0.30;0.30;;;;;;;7.80;100.00;96720.97;5116745;28;20214;-74
2024/01/02 08:15:58;;;;;;;0.30;0.20;;;;;;;7.77;100.00;96709.03;5117226;28;20204;-74
2024/01/02 08:18:24;;;;;;;0.30;0.20;;;;;;;7.76;100.00;96719.84;5116934;28;20230;-74
2024/01/02 08:20:51;;;;;;;0.30;0.30;;;;;;;7.78;100.00;96728.34;5116636;28;20706;-74
2024/01/02 08:23:17;;;;;;;0.20;0.20;;;;;;;7.86;100.00;96709.44;5116719;28;20218;-74
2024/01/02 08:25:43;;;;;;;0.20;0.20;;;;;;;7.90;100.00;96710.59;5116660;28;20321;-74
2024/01/02 08:28:10;;;;;;;0.20;0.20;;;;;;;7.93;100.00;96718.06;5116493;28;20214;-74
2024/01/02 08:30:36;;;;;;;0.20;0.20;;;;;;;7.93;100.00;96724.19;5116935;28;20227;-74
2024/01/02 08:33:03;;;;;;;0.43;0.30;;;;;;;8.14;100.00;96728.81;5116871;28;20206;-74
2024/01/02 08:35:29;;;;;;;0.50;0.30;;;;;;;8.14;100.00;96736.75;5116806;28;20201;-74
2024/01/02 08:37:56;;;;;;;0.83;0.20;;;;;;;8.19;100.00;96715.66;5116468;28;20206;-74
2024/01/02 08:40:22;;;;;;;0.47;0.20;;;;;;;8.29;100.00;96742.38;5116233;28;20227;-74
2024/01/02 08:42:48;;;;;;;0.40;0.30;;;;;;;8.35;100.00;96743.28;5116325;28;20204;-74
2024/01/02 08:45:15;;;;;;;0.20;0.20;;;;;;;8.36;100.00;96716.56;5116371;28;20230;-74
2024/01/02 08:47:41;;;;;;;0.20;0.20;;;;;;;8.40;100.00;96732.78;5116168;28;20669;-74
2024/01/02 08:50:08;;;;;;;0.33;0.30;;;;;;;8.28;100.00;96732.81;5116023;28;20219;-74
2024/01/02 08:52:36;;;;;;;0.20;0.20;;;;;;;8.44;100.00;96729.44;5116346;28;20205;-74
2024/01/02 08:55:03;;;;;;;0.30;0.30;;;;;;;8.51;100.00;96722.13;5115505;28;20682;-74
2024/01/02 08:57:30;;;;;;;1.30;0.23;;;;;;;8.38;100.00;96726.91;5116268;28;20217;-74
2024/01/02 08:59:57;;;;;;;0.60;0.30;;;;;;;8.46;100.00;96729.19;5115679;28;20226;-74
2024/01/02 09:02:23;;;;;;;0.57;0.20;;;;;;;8.57;100.00;96723.84;5115801;28;20701;-74
2024/01/02 09:04:50;;;;;;;0.20;0.20;;;;;;;8.51;100.00;96738.00;5115959;28;20310;-74
2024/01/02 09:07:16;;;;;;;0.27;0.27;;;;;;;8.49;100.00;96728.69;5115935;28;20207;-74
2024/01/02 09:09:42;;;;;;;1.10;0.30;;;;;;;8.65;100.00;96734.03;5115941;28;20231;-74
2024/01/02 09:12:09;;;;;;;0.63;0.30;;;;;;;8.64;100.00;96743.03;5116520;28;20207;-74
2024/01/02 09:14:36;;;;;;;0.20;0.20;;;;;;;8.61;100.00;96748.81;5116271;28;20195;-74
2024/01/02 09:17:03;;;;;;;0.20;0.20;;;;;;;8.63;100.00;96753.84;5115504;28;20553;-74
2024/01/02 09:19:28;;;;;;;1.13;0.30;;;;;;;8.70;100.00;96759.81;5115638;28;20721;-74
2024/01/02 09:21:55;;;;;;;0.20;0.20;;;;;;;8.65;100.00;96757.88;5115599;28;20253;-74
2024/01/02 09:24:21;;;;;;;0.30;0.30;;;;;;;8.71;100.00;96758.78;5115523;28;20219;-74
2024/01/02 09:26:51;;;;;;;0.20;0.20;;;;;;;8.83;100.00;96760.31;5115770;28;20205;-74
2024/01/02 09:29:18;;;;;;;0.73;0.30;;;;;;;8.78;100.00;96762.09;5115253;28;20674;-74
2024/01/02 09:31:44;;;;;;;0.20;0.20;;;;;;;8.83;100.00;96756.88;5115818;28;20209;-74
2024/01/02 09:34:11;;;;;;;1.37;0.40;;;;;;;8.93;100.00;96765.00;5115642;28;20295;-74
2024/01/02 09:36:39;;;;;;;0.30;0.30;;;;;;;9.02;100.00;96763.56;5115214;28;20210;-74
2024/01/02 09:39:06;;;;;;;0.27;0.27;;;;;;;8.97;100.00;96774.84;5114973;28;20210;-74
2024/01/02 09:41:53;;;;;;;0.60;0.30;;;;;;;9.00;100.00;96760.34;5115001;28;20260;-74
2024/01/02 09:44:54;;;;;;;0.83;0.20;;;;;;;9.05;100.00;96763.09;5114974;28;20306;-74
2024/01/02 09:47:33;;;;;;;0.30;0.30;;;;;;;9.08;100.00;96765.22;5115175;28;20692;-74
2024/01/02 09:50:04;;;;;;;0.30;0.30;;;;;;;9.07;100.00;96763.63;5114909;28;20219;-74
2024/01/02 09:52:49;;;;;;;0.23;0.23;;;;;;;9.12;100.00;96766.38;5114198;28;20197;-74
2024/01/02 09:55:30;;;;;;;0.20;0.20;;;;;;;9.04;100.00;96761.44;5115203;28;20184;-74
2024/01/02 09:58:18;;;;;;;0.63;0.27;;;;;;;9.02;100.00;96758.25;5114988;28;20191;-74
2024/01/02 10:01:19;;;;;;;0.87;0.30;;;;;;;9.07;100.00;96761.78;5114713;28;20705;-74
2024/01/02 10:04:18;;;;;;;0.20;0.20;;;;;;;9.13;100.00;96752.06;5081925;28;20557;-74
2024/01/02 10:06:44;;;;;;;0.97;0.40;;;;;;;9.18;100.00;96760.09;5114060;28;20183;-74
2024/01/02 10:09:44;;;;;;;0.23;0.23;;;;;;;9.21;100.00;96765.72;5114515;28;20223;-74
2024/01/02 10:12:17;;;;;;;0.30;0.30;;;;;;;9.27;100.00;96753.34;5113522;28;20188;-74
2024/01/02 10:15:09;;;;;;;0.30;0.30;;;;;;;9.35;100.00;96766.19;5114262;28;20203;-74
2024/01/02 10:17:54;;;;;;;0.20;0.20;;;;;;;9.39;100.00;96749.56;5114688;28;20187;-74
2024/01/02 10:20:39;;;;;;;0.20;0.20;;;;;;;9.44;100.00;96752.28;5114665;28;20227;-74
2024/01/02 10:23:23;;;;;;;0.20;0.20;;;;;;;9.48;100.00;96758.72;5114648;28;20566;-74
2024/01/02 10:25:54;;;;;;;0.20;0.20;;;;;;;9.47;100.00;96754.47;5114747;28;20211;-74
2024/01/02 10:28:26;;;;;;;0.20;0.20;;;;;;;9.50;100.00;96753.19;5114494;28;20184;-74
2024/01/02 10:30:57;;;;;;;0.23;0.23;;;;;;;9.43;100.00;96739.28;5114152;28;20227;-74
2024/01/02 10:33:27;;;;;;;0.97;0.20;;;;;;;9.45;100.00;96747.78;5114497;28;20272;-74
2024/01/02 10:35:55;;;;;;;0.20;0.20;;;;;;;9.46;100.00;96739.59;5114375;28;20194;-74
2024/01/02 10:38:35;;;;;;;0.30;0.30;;;;;;;9.56;100.00;96741.59;5114014;28;20666;-74
2024/01/02 10:41:16;;;;;;;0.20;0.20;;;;;;;9.54;100.00;96738.34;5114384;28;20230;-74
2024/01/02 10:44:38;;;;;;;0.30;0.30;;;;;;;9.52;100.00;96740.47;5113842;28;20639;-74
2024/01/02 10:47:28;;;;;;;0.20;0.20;;;;;;;9.56;100.00;96718.50;5019417;28;20245;-74
2024/01/02 10:50:00;;;;;;;0.10;0.10;;;;;;;9.55;100.00;96732.81;5110283;27;20263;-74
2024/01/02 10:52:40;;;;;;;0.20;0.20;;;;;;;9.60;100.00;96729.44;5113798;28;20670;-74
2024/01/02 10:55:22;;;;;;;0.33;0.33;;;;;;;9.59;100.00;96717.22;5114160;28;20188;-74
2024/01/02 10:57:56;;;;;;;0.30;0.30;;;;;;;9.60;100.00;96732.09;5113021;28;20188;-74
2024/01/02 11:00:26;;;;;;;0.20;0.20;;;;;;;9.73;100.00;96710.53;5113616;28;20697;-74
2024/01/02 11:02:59;;;;;;;0.57;0.30;;;;;;;9.73;100.00;96716.59;5113877;28;20286;-74
2024/01/02 11:05:46;;;;;;;0.50;0.50;;;;;;;9.76;100.00;96720.63;5113433;28;20203;-74
2024/01/02 11:08:33;;;;;;;0.40;0.30;;;;;;;9.75;100.00;96708.41;5113844;28;20213;-74
2024/01/02 11:11:04;;;;;;;0.23;0.23;;;;;;;9.75;100.00;96719.03;5113366;28;20589;-74
2024/01/02 11:13:31;;;;;;;1.53;0.30;;;;;;;9.85;100.00;96706.69;5113460;28;20643;-74
2024/01/02 11:16:05;;;;;;;0.30;0.30;;;;;;;9.86;100.00;96710.16;5113741;28;20207;-74
2024/01/02 11:18:33;;;;;;;0.20;0.20;;;;;;;9.92;100.00;96709.94;5113764;28;20248;-74
2024/01/02 11:21:00;;;;;;;0.63;0.33;;;;;;;9.95;100.00;96700.69;5113258;28;20731;-74
2024/01/02 11:23:41;;;;;;;1.40;0.30;;;;;;;10.02;100.00;96690.69;5113898;28;20214;-74
2024/01/02 11:26:21;;;;;;;0.20;0.20;;;;;;;10.00;100.00;96676.88;5114181;28;20216;-74
2024/01/02 11:28:49;;;;;;;0.30;0.30;;;;;;;10.02;100.00;96669.44;5113280;28;20638;-74
2024/01/02 11:31:17;;;;;;;0.43;0.20;;;;;;;10.08;100.00;96671.13;5113202;28;20207;-74
2024/01/02 11:33:55;;;;;;;0.20;0.20;;;;;;;10.17;100.00;96656.38;5113742;28;20646;-74
2024/01/02 11:36:46;;;;;;;0.30;0.30;;;;;;;10.14;100.00;96664.84;5113225;28;20189;-74
2024/01/02 11:39:55;;;;;;;2.13;0.20;;;;;;;10.21;100.00;96657.47;5113593;28;20237;-74